Time;durP1;ratioP1;P1;durP2;ratioP2;P2;SDS_P1;SDS_P2;PMS_P1;PMS_P2;Temp;Humidity;BMP_temperature;BMP_pressure;BME280_temperature;BME280_humidity;BME280_pressure;Samples;Min_cycle;Max_cycle;Signal;HPM_P1;HPM_P2
2023/07/14 00:01:57;;;;;;;2.90;1.70;;;;;;;29.14;45.46;100224.13;5094045;28;20079;-77
2023/07/14 00:04:33;;;;;;;3.13;1.90;;;;;;;29.11;45.13;100223.72;5109139;28;20135;-77
2023/07/14 00:07:03;;;;;;;3.95;1.80;;;;;;;29.12;45.38;100230.91;5093616;28;20044;-78
2023/07/14 00:09:33;;;;;;;2.85;1.85;;;;;;;29.11;45.15;100226.47;5093418;28;20083;-77
2023/07/14 00:12:02;;;;;;;2.90;1.65;;;;;;;29.13;45.43;100229.84;5074588;28;20086;-77
2023/07/14 00:14:30;;;;;;;3.30;1.80;;;;;;;29.08;45.19;100228.59;5093688;28;20063;-77
2023/07/14 00:16:58;;;;;;;2.92;1.52;;;;;;;29.07;45.44;100235.13;5093632;28;20051;-77
2023/07/14 00:19:27;;;;;;;3.60;1.77;;;;;;;29.04;45.40;100230.06;5093613;28;20482;-78
2023/07/14 00:21:57;;;;;;;3.58;2.00;;;;;;;29.04;45.39;100240.19;5093424;28;20543;-77
2023/07/14 00:24:26;;;;;;;2.13;1.60;;;;;;;29.02;45.22;100234.91;5093466;28;20136;-77
2023/07/14 00:26:56;;;;;;;2.70;1.67;;;;;;;29.00;45.33;100237.03;5093478;28;20055;-77
2023/07/14 00:29:43;;;;;;;2.60;1.60;;;;;;;29.00;45.19;100233.44;5093243;28;20487;-78
2023/07/14 00:32:18;;;;;;;3.40;1.83;;;;;;;28.98;45.31;100239.16;5093409;28;20138;-75
2023/07/14 00:34:46;;;;;;;2.72;1.83;;;;;;;28.97;45.49;100237.47;5075451;28;20083;-77
2023/07/14 00:37:15;;;;;;;2.33;1.52;;;;;;;28.94;45.58;100240.63;5093254;28;20051;-77
2023/07/14 00:39:44;;;;;;;3.17;1.70;;;;;;;28.96;45.47;100244.03;5093233;28;20050;-77
2023/07/14 00:42:14;;;;;;;3.20;1.70;;;;;;;28.95;45.71;100242.34;5092995;28;20446;-75
2023/07/14 00:44:44;;;;;;;3.30;1.90;;;;;;;28.94;45.25;100240.63;5092710;28;20055;-75
2023/07/14 00:47:20;;;;;;;3.15;1.83;;;;;;;28.94;45.63;100235.13;5093007;28;20047;-77
2023/07/14 00:49:51;;;;;;;3.63;1.75;;;;;;;28.92;45.47;100237.25;5093091;28;20057;-77
2023/07/14 00:52:28;;;;;;;2.72;2.00;;;;;;;28.90;45.40;100231.13;5075069;28;20083;-78
2023/07/14 00:54:58;;;;;;;3.13;1.83;;;;;;;28.90;45.26;100239.38;5092787;28;20056;-77
2023/07/14 00:57:31;;;;;;;3.78;1.83;;;;;;;28.90;45.34;100239.38;5092750;28;20052;-77
2023/07/14 01:00:20;;;;;;;2.72;1.60;;;;;;;28.90;45.75;100247.59;5092930;28;20105;-74
2023/07/14 01:02:51;;;;;;;2.80;1.80;;;;;;;28.90;45.55;100247.59;5092933;28;20127;-76
2023/07/14 01:05:20;;;;;;;2.47;1.75;;;;;;;28.89;45.51;100256.91;5092638;28;20040;-78
2023/07/14 01:07:50;;;;;;;2.72;1.52;;;;;;;28.88;45.56;100255.19;5092447;28;20127;-77
2023/07/14 01:10:24;;;;;;;3.55;1.90;;;;;;;28.87;45.68;100250.75;5092271;28;20150;-77
2023/07/14 01:12:58;;;;;;;2.92;1.83;;;;;;;28.87;45.76;100253.50;5092592;28;20071;-77
2023/07/14 01:15:27;;;;;;;3.40;1.83;;;;;;;28.87;45.78;100249.91;5074229;28;20091;-77
2023/07/14 01:17:56;;;;;;;2.30;1.60;;;;;;;28.85;45.90;100255.59;5092452;28;20048;-77
2023/07/14 01:20:25;;;;;;;2.83;1.90;;;;;;;28.85;45.76;100262.97;5092158;28;20044;-77
2023/07/14 01:23:05;;;;;;;1.92;1.40;;;;;;;28.84;45.65;100269.53;5092298;28;20075;-78
2023/07/14 01:25:49;;;;;;;2.85;1.52;;;;;;;28.83;45.57;100265.09;5092072;28;20047;-77
2023/07/14 01:28:19;;;;;;;3.78;1.63;;;;;;;28.82;45.75;100261.50;5092259;28;20130;-77
2023/07/14 01:30:48;;;;;;;3.30;1.98;;;;;;;28.81;45.70;100268.06;5092128;28;20512;-77
2023/07/14 01:33:18;;;;;;;2.65;1.80;;;;;;;28.81;45.70;100281.78;5092002;28;20059;-77
2023/07/14 01:35:51;;;;;;;3.15;2.00;;;;;;;28.80;45.55;100278.19;5092097;28;20097;-78
2023/07/14 01:38:20;;;;;;;2.70;1.70;;;;;;;28.79;45.63;100275.66;5091986;28;20132;-76
2023/07/14 01:40:53;;;;;;;2.78;1.77;;;;;;;28.78;45.67;100282.22;5091766;28;20143;-77
2023/07/14 01:43:24;;;;;;;2.45;1.67;;;;;;;28.79;45.80;100281.16;5091581;28;20165;-77
2023/07/14 01:45:56;;;;;;;2.65;1.58;;;;;;;28.76;45.71;100276.94;5091924;28;20127;-77
2023/07/14 01:48:28;;;;;;;2.40;1.60;;;;;;;28.76;45.79;100276.09;5091592;28;20135;-77
2023/07/14 01:50:59;;;;;;;3.22;1.88;;;;;;;28.74;46.02;100273.53;5092015;28;20052;-77
2023/07/14 01:53:34;;;;;;;2.67;1.70;;;;;;;28.74;45.74;100279.03;5091657;28;20048;-77
2023/07/14 01:56:08;;;;;;;2.90;1.70;;;;;;;28.74;45.97;100272.69;5091380;28;20067;-77
2023/07/14 01:58:52;;;;;;;2.90;1.90;;;;;;;28.72;45.46;100275.66;5091787;28;20097;-77
2023/07/14 02:01:23;;;;;;;2.70;1.65;;;;;;;28.71;45.54;100281.34;5091692;28;20083;-77
2023/07/14 02:03:55;;;;;;;3.05;1.85;;;;;;;28.71;46.08;100281.34;5091624;28;20076;-78
2023/07/14 02:06:26;;;;;;;3.40;1.65;;;;;;;28.70;45.78;100283.25;5091324;28;20420;-78
2023/07/14 02:08:58;;;;;;;2.33;1.55;;;;;;;28.69;45.67;100269.75;5091176;28;20048;-75
2023/07/14 02:11:28;;;;;;;3.25;1.70;;;;;;;28.68;45.99;100279.88;5091384;28;20093;-75
2023/07/14 02:13:58;;;;;;;2.55;1.70;;;;;;;28.67;45.71;100272.72;5091469;28;20052;-76
2023/07/14 02:16:29;;;;;;;2.70;1.67;;;;;;;28.67;45.86;100271.88;5091477;28;20081;-76
2023/07/14 02:18:58;;;;;;;3.55;1.85;;;;;;;28.66;45.74;100286.59;5091383;28;20079;-76
2023/07/14 02:21:30;;;;;;;2.22;1.50;;;;;;;28.66;45.85;100281.13;5091623;28;20083;-76
2023/07/14 02:24:00;;;;;;;2.65;1.85;;;;;;;28.65;45.64;100279.44;5091661;28;20044;-76
2023/07/14 02:26:33;;;;;;;2.85;1.75;;;;;;;28.65;46.18;100282.19;5091248;28;20040;-75
2023/07/14 02:29:02;;;;;;;;;;;;;;;28.64;45.64;100278.59;5091992;28;20173;-75
2023/07/14 02:31:38;;;;;;;2.17;1.50;;;;;;;28.62;45.70;100279.88;5091249;28;20296;-77
2023/07/14 02:34:11;;;;;;;2.92;1.80;;;;;;;28.62;45.58;100282.59;5092425;28;20048;-77
2023/07/14 02:36:43;;;;;;;2.92;1.80;;;;;;;28.62;45.98;100291.69;5095542;28;20052;-77
2023/07/14 02:39:11;;;;;;;2.88;1.90;;;;;;;28.61;45.56;100287.25;5095357;28;20054;-77
2023/07/14 02:41:43;;;;;;;3.00;1.90;;;;;;;28.61;45.69;100291.91;5095235;28;20044;-77
2023/07/14 02:44:17;;;;;;;2.50;1.50;;;;;;;28.60;45.92;100298.44;5077066;28;20076;-76
2023/07/14 02:46:49;;;;;;;2.28;1.48;;;;;;;28.56;45.88;100300.75;5095527;28;20407;-77
2023/07/14 02:49:19;;;;;;;3.42;1.90;;;;;;;28.57;46.09;100307.94;5095394;28;20059;-77
2023/07/14 02:51:48;;;;;;;4.53;1.90;;;;;;;28.57;45.59;100315.28;5095109;28;20405;-77
2023/07/14 02:54:19;;;;;;;3.35;1.77;;;;;;;28.56;45.87;100319.09;5095088;28;20070;-77
2023/07/14 02:56:47;;;;;;;3.42;2.00;;;;;;;28.57;45.60;100318.03;5094689;28;20044;-76
2023/07/14 02:59:20;;;;;;;2.75;1.70;;;;;;;28.56;45.55;100319.09;5095261;28;20101;-77
2023/07/14 03:01:48;;;;;;;2.85;1.73;;;;;;;28.56;45.68;100324.59;5095013;28;20075;-76
2023/07/14 03:04:17;;;;;;;2.30;1.67;;;;;;;28.55;45.73;100321.00;5110482;28;20044;-76
2023/07/14 03:06:48;;;;;;;2.33;1.50;;;;;;;28.54;45.89;100324.81;5094741;28;20430;-76
2023/07/14 03:09:16;;;;;;;3.42;1.88;;;;;;;28.53;45.79;100320.38;5094527;28;20139;-77
2023/07/14 03:11:44;;;;;;;2.60;1.73;;;;;;;28.52;45.86;100322.28;5095026;28;20055;-77
2023/07/14 03:14:13;;;;;;;3.25;1.92;;;;;;;28.53;45.51;100325.84;5094652;28;20056;-77
2023/07/14 03:16:42;;;;;;;2.75;1.77;;;;;;;28.50;46.01;100321.63;5094494;28;20044;-77
2023/07/14 03:19:11;;;;;;;2.95;1.80;;;;;;;28.50;45.65;100326.28;5094594;28;20055;-77
2023/07/14 03:21:39;;;;;;;3.25;1.60;;;;;;;28.50;45.62;100327.13;5094894;28;20463;-77
2023/07/14 03:24:07;;;;;;;3.03;1.75;;;;;;;28.48;45.58;100326.50;5094354;28;20473;-77
2023/07/14 03:26:36;;;;;;;2.92;1.80;;;;;;;28.49;45.94;100330.06;5076911;28;20366;-76
2023/07/14 03:29:04;;;;;;;2.90;1.77;;;;;;;28.47;45.70;100332.16;5094592;28;20133;-77
2023/07/14 03:31:32;;;;;;;3.35;1.83;;;;;;;28.46;45.84;100325.81;5094367;28;20083;-76
2023/07/14 03:34:02;;;;;;;3.30;2.05;;;;;;;28.47;45.63;100337.66;5094448;28;20048;-76
2023/07/14 03:36:30;;;;;;;2.58;1.60;;;;;;;28.46;45.48;100336.81;5093986;28;20080;-76
2023/07/14 03:39:25;;;;;;;2.92;1.92;;;;;;;28.46;45.79;100338.69;5094517;28;20072;-75
2023/07/14 03:41:55;;;;;;;2.25;1.67;;;;;;;28.44;45.71;100341.66;5094320;28;20052;-77
2023/07/14 03:44:24;;;;;;;4.22;2.00;;;;;;;28.44;45.88;100333.44;5093985;28;20085;-77
2023/07/14 03:46:54;;;;;;;2.47;1.52;;;;;;;28.43;46.18;100333.63;5092578;28;20055;-77
2023/07/14 03:49:23;;;;;;;2.83;1.80;;;;;;;28.43;45.63;100337.22;5094203;28;20058;-77
2023/07/14 03:51:54;;;;;;;2.60;1.65;;;;;;;28.42;45.72;100340.19;5094134;28;20048;-77
2023/07/14 03:54:22;;;;;;;3.97;1.90;;;;;;;28.41;46.07;100347.56;5076111;28;20416;-77
2023/07/14 03:56:52;;;;;;;2.78;1.70;;;;;;;28.41;46.01;100353.06;5093743;28;20051;-77
2023/07/14 03:59:20;;;;;;;2.65;1.80;;;;;;;28.40;46.22;100348.63;5109126;28;20051;-76
2023/07/14 04:01:48;;;;;;;3.00;1.80;;;;;;;28.41;45.80;100357.69;5093814;28;20051;-77
2023/07/14 04:04:19;;;;;;;3.60;1.70;;;;;;;28.41;46.24;100355.78;5075446;28;20055;-77
2023/07/14 04:06:52;;;;;;;3.15;1.85;;;;;;;28.40;45.75;100359.59;5093565;28;20520;-76
2023/07/14 04:09:20;;;;;;;2.75;1.88;;;;;;;28.40;45.95;100358.75;5093620;28;20094;-77
2023/07/14 04:11:48;;;;;;;3.08;2.00;;;;;;;28.39;45.75;100363.38;5075752;28;20067;-78
2023/07/14 04:14:17;;;;;;;4.22;2.10;;;;;;;28.38;45.71;100367.19;5093621;28;20504;-77
2023/07/14 04:16:51;;;;;;;3.45;1.80;;;;;;;28.38;46.16;100356.22;5093588;28;20083;-76
2023/07/14 04:19:19;;;;;;;4.13;2.08;;;;;;;28.37;45.82;100365.47;5093523;28;20044;-76
2023/07/14 04:21:49;;;;;;;3.78;1.92;;;;;;;28.37;45.69;100373.69;5093484;28;20096;-78
2023/07/14 04:24:17;;;;;;;3.28;2.00;;;;;;;28.37;46.08;100376.44;5093414;28;20052;-77
2023/07/14 04:26:46;;;;;;;4.40;2.22;;;;;;;28.36;45.86;100369.25;5093186;28;20127;-77
2023/07/14 04:29:17;;;;;;;3.85;2.53;;;;;;;28.34;45.79;100371.38;5093316;28;20048;-77
2023/07/14 04:31:48;;;;;;;4.22;1.98;;;;;;;28.36;45.75;100385.72;5093318;28;20062;-77
2023/07/14 04:34:16;;;;;;;4.25;2.50;;;;;;;28.36;46.20;100384.88;5075309;28;20051;-78
2023/07/14 04:36:47;;;;;;;3.28;2.10;;;;;;;28.35;46.23;100378.56;5093003;28;20139;-76
2023/07/14 04:39:16;;;;;;;3.08;2.30;;;;;;;28.35;45.78;100384.03;5092767;28;20079;-77
2023/07/14 04:41:45;;;;;;;3.72;2.20;;;;;;;28.35;45.95;100383.19;5092966;28;20051;-77
2023/07/14 04:44:15;;;;;;;4.28;2.53;;;;;;;28.34;45.89;100385.09;5092764;28;20516;-77
2023/07/14 04:46:48;;;;;;;3.80;2.17;;;;;;;28.34;45.87;100387.84;5092857;28;20060;-77
2023/07/14 04:49:17;;;;;;;4.18;2.42;;;;;;;28.34;46.29;100387.84;5092900;28;20138;-77
2023/07/14 04:51:45;;;;;;;3.45;2.15;;;;;;;28.34;46.19;100392.47;5092490;28;20039;-77
2023/07/14 04:54:15;;;;;;;4.03;2.00;;;;;;;28.32;45.99;100400.91;5093109;28;20436;-77
2023/07/14 04:56:44;;;;;;;3.88;2.50;;;;;;;28.33;46.35;100397.13;5074156;28;20102;-78
2023/07/14 04:59:12;;;;;;;5.65;2.63;;;;;;;28.33;45.88;100408.09;5092775;28;20047;-76
2023/07/14 05:01:40;;;;;;;5.18;2.78;;;;;;;28.32;46.14;100400.91;5092630;28;20135;-77
2023/07/14 05:04:09;;;;;;;4.60;2.58;;;;;;;28.34;46.37;100409.78;5092462;28;20048;-77
2023/07/14 05:06:41;;;;;;;5.28;2.63;;;;;;;28.33;45.99;100413.56;5092521;28;20047;-77
2023/07/14 05:09:11;;;;;;;4.35;2.35;;;;;;;28.33;46.33;100419.06;5092513;28;20127;-77
2023/07/14 05:11:41;;;;;;;4.13;2.40;;;;;;;28.33;45.96;100427.28;5092548;28;20123;-77
2023/07/14 05:14:09;;;;;;;4.15;2.33;;;;;;;28.32;46.11;100417.38;5092506;28;20130;-77
2023/07/14 05:16:38;;;;;;;3.80;2.22;;;;;;;28.32;46.23;100431.09;5092212;28;20044;-77
2023/07/14 05:19:06;;;;;;;3.45;2.25;;;;;;;28.32;46.24;100436.56;5092465;28;20130;-77
2023/07/14 05:21:34;;;;;;;4.68;2.30;;;;;;;28.33;46.41;100441.00;5092526;28;20048;-77
2023/07/14 05:24:02;;;;;;;3.40;2.10;;;;;;;28.32;46.38;100432.97;5092385;28;20098;-78
2023/07/14 05:26:35;;;;;;;3.45;2.10;;;;;;;28.31;46.04;100437.63;5092019;28;20044;-77
2023/07/14 05:29:09;;;;;;;3.85;2.17;;;;;;;28.32;46.00;100441.22;5092155;28;20048;-78
2023/07/14 05:31:38;;;;;;;3.63;2.38;;;;;;;28.33;46.08;100442.91;5092125;28;20052;-77
2023/07/14 05:34:06;;;;;;;2.95;2.05;;;;;;;28.30;46.19;100435.94;5092066;28;20040;-77
2023/07/14 05:36:37;;;;;;;3.30;2.15;;;;;;;28.31;46.32;100432.13;5092120;28;20444;-77
2023/07/14 05:39:06;;;;;;;3.63;2.35;;;;;;;28.32;46.11;100433.81;5092061;28;20048;-78
2023/07/14 05:41:34;;;;;;;4.18;2.40;;;;;;;28.32;46.40;100444.81;5092015;28;20126;-77
2023/07/14 05:44:06;;;;;;;3.75;2.30;;;;;;;28.31;46.13;100445.84;5091924;28;20063;-77
2023/07/14 05:46:35;;;;;;;3.95;2.17;;;;;;;28.32;46.36;100441.22;5092013;28;20052;-77
2023/07/14 05:49:03;;;;;;;3.60;2.20;;;;;;;28.31;46.54;100443.09;5091956;28;20088;-77
2023/07/14 05:51:31;;;;;;;4.78;2.53;;;;;;;28.31;46.14;100437.63;5092011;28;20146;-78
2023/07/14 05:54:00;;;;;;;4.03;2.42;;;;;;;28.32;46.33;100435.72;5091833;28;20044;-77
2023/07/14 05:56:28;;;;;;;5.00;2.58;;;;;;;28.31;46.46;100432.13;5073786;28;20055;-77
2023/07/14 05:58:57;;;;;;;3.85;2.30;;;;;;;28.32;46.30;100441.22;5091778;28;20083;-75
2023/07/14 06:01:25;;;;;;;4.07;2.45;;;;;;;28.32;46.51;100447.53;5091944;28;20047;-77
2023/07/14 06:03:55;;;;;;;3.53;2.08;;;;;;;28.31;46.21;100448.59;5091741;28;20082;-77
2023/07/14 06:06:23;;;;;;;3.58;2.10;;;;;;;28.29;46.68;100444.38;5091727;28;20044;-76
2023/07/14 06:08:51;;;;;;;3.72;2.22;;;;;;;28.29;46.59;100438.88;5090563;28;20116;-76
2023/07/14 06:11:23;;;;;;;3.80;2.38;;;;;;;28.30;46.25;100449.66;5091770;28;20135;-75
2023/07/14 06:13:51;;;;;;;3.38;2.20;;;;;;;28.30;46.50;100451.53;5091551;28;20059;-76
2023/07/14 06:16:20;;;;;;;3.80;2.20;;;;;;;28.29;46.61;100447.97;5091577;28;20044;-77
2023/07/14 06:18:49;;;;;;;4.85;2.30;;;;;;;28.26;46.30;100444.72;5091358;28;20091;-78
2023/07/14 06:21:19;;;;;;;4.00;2.22;;;;;;;28.28;46.62;100440.78;5091338;28;20039;-77
2023/07/14 06:23:47;;;;;;;3.00;2.10;;;;;;;28.29;46.31;100445.22;5091504;28;20043;-77
2023/07/14 06:26:15;;;;;;;3.25;2.10;;;;;;;28.30;46.25;100459.78;5091557;28;20051;-76
2023/07/14 06:28:43;;;;;;;3.58;2.20;;;;;;;28.29;46.29;100456.19;5091379;28;20052;-77
2023/07/14 06:31:14;;;;;;;3.28;2.17;;;;;;;28.29;46.71;100461.66;5091243;28;20055;-78
2023/07/14 06:33:44;;;;;;;3.10;1.98;;;;;;;28.29;46.21;100452.59;5091294;28;20044;-77
2023/07/14 06:36:14;;;;;;;3.15;1.85;;;;;;;28.30;46.32;100455.13;5091125;28;20040;-77
2023/07/14 06:38:44;;;;;;;3.50;2.03;;;;;;;28.31;46.22;100454.09;5091298;28;20054;-77
2023/07/14 06:41:15;;;;;;;3.40;1.88;;;;;;;28.30;46.71;100455.13;5091144;28;20048;-77
2023/07/14 06:43:46;;;;;;;3.20;2.00;;;;;;;28.31;46.46;100465.06;5091212;28;20417;-77
2023/07/14 06:46:15;;;;;;;2.75;1.83;;;;;;;28.32;46.70;100460.41;5091296;28;20489;-77
2023/07/14 06:48:45;;;;;;;3.00;2.05;;;;;;;28.31;46.35;100462.31;5090994;28;20048;-75
2023/07/14 06:51:14;;;;;;;3.13;2.00;;;;;;;28.33;46.32;100470.34;5091162;28;20048;-77
2023/07/14 06:53:45;;;;;;;3.35;2.10;;;;;;;28.33;46.49;100468.44;5091168;28;20074;-77
2023/07/14 06:56:14;;;;;;;3.22;1.95;;;;;;;28.33;46.19;100468.44;5091210;28;20517;-77
2023/07/14 06:58:43;;;;;;;3.35;1.98;;;;;;;28.33;46.50;100462.94;5090997;28;20048;-77
2023/07/14 07:01:11;;;;;;;2.90;1.98;;;;;;;28.32;46.29;100466.75;5090949;28;20044;-78
2023/07/14 07:03:40;;;;;;;3.20;1.90;;;;;;;28.34;46.59;100458.31;5090875;28;20075;-81
2023/07/14 07:06:08;;;;;;;3.85;2.13;;;;;;;28.33;46.29;100456.63;5090923;28;20052;-77
2023/07/14 07:08:39;;;;;;;3.13;1.98;;;;;;;28.34;46.67;100459.16;5090839;28;20048;-76
2023/07/14 07:11:10;;;;;;;3.45;1.90;;;;;;;28.35;46.66;100458.09;5073119;28;20055;-76
2023/07/14 07:13:41;;;;;;;3.00;2.05;;;;;;;28.34;46.12;100453.66;5090682;28;20050;-75
2023/07/14 07:16:11;;;;;;;3.20;1.90;;;;;;;28.35;46.28;100460.84;5090853;28;20143;-77
2023/07/14 07:18:40;;;;;;;2.70;1.90;;;;;;;28.35;46.10;100457.25;5090699;28;20056;-78
2023/07/14 07:21:12;;;;;;;3.75;2.00;;;;;;;28.35;46.73;100460.84;5093254;28;20539;-77
2023/07/14 07:23:40;;;;;;;3.37;2.00;;;;;;;28.35;46.17;100470.97;5077386;28;20055;-77
2023/07/14 07:26:10;;;;;;;3.80;2.10;;;;;;;28.36;46.34;100467.16;5094637;28;20064;-78
2023/07/14 07:28:38;;;;;;;3.50;2.10;;;;;;;28.36;46.61;100467.16;5093352;28;20486;-77
2023/07/14 07:31:09;;;;;;;2.75;2.00;;;;;;;28.36;46.56;100468.00;5094594;28;20424;-77
2023/07/14 07:33:38;;;;;;;3.08;1.98;;;;;;;28.36;46.29;100473.50;5094528;28;20139;-77
2023/07/14 07:36:14;;;;;;;3.55;2.03;;;;;;;28.37;46.10;100471.59;5076248;28;20052;-77
2023/07/14 07:38:45;;;;;;;2.85;1.90;;;;;;;28.37;46.28;100477.94;5094018;28;20131;-76
2023/07/14 07:41:16;;;;;;;3.40;2.05;;;;;;;28.37;46.63;100468.84;5094386;28;20135;-77
2023/07/14 07:43:44;;;;;;;3.10;1.95;;;;;;;28.37;46.20;100472.44;5094383;28;20146;-77
2023/07/14 07:46:19;;;;;;;3.00;1.77;;;;;;;28.38;46.30;100471.44;5094099;28;20410;-78
2023/07/14 07:48:47;;;;;;;3.38;2.00;;;;;;;28.40;46.13;100476.72;5093941;28;20079;-77
2023/07/14 07:51:25;;;;;;;3.22;1.70;;;;;;;28.38;46.49;100479.66;5093848;28;20059;-78
2023/07/14 07:53:56;;;;;;;3.67;2.08;;;;;;;28.40;46.07;100474.81;5093993;28;20398;-77
2023/07/14 07:56:28;;;;;;;3.15;1.95;;;;;;;28.40;46.29;100472.06;5094116;28;20047;-77
2023/07/14 07:58:56;;;;;;;3.90;2.00;;;;;;;28.41;46.00;100465.53;5094043;28;20101;-77
2023/07/14 08:01:26;;;;;;;2.95;1.90;;;;;;;28.42;46.05;100469.97;5093991;28;20052;-77
2023/07/14 08:04:00;;;;;;;2.80;1.92;;;;;;;28.42;46.04;100469.97;5093809;28;20051;-77
2023/07/14 08:06:29;;;;;;;3.50;2.03;;;;;;;28.43;46.25;100476.28;5093966;28;20048;-77
2023/07/14 08:08:58;;;;;;;3.10;1.65;;;;;;;28.43;45.89;100466.16;5093914;28;20052;-77
2023/07/14 08:11:28;;;;;;;2.72;1.70;;;;;;;28.44;45.99;100469.75;5093794;28;20401;-77
2023/07/14 08:13:58;;;;;;;2.65;1.70;;;;;;;28.44;46.44;100464.25;5109179;28;20074;-77
2023/07/14 08:16:27;;;;;;;3.03;1.92;;;;;;;28.43;46.20;100463.41;5093040;28;20044;-78
2023/07/14 08:18:55;;;;;;;3.15;1.92;;;;;;;28.45;45.96;100460.47;5093541;28;20048;-77
2023/07/14 08:21:23;;;;;;;2.95;1.80;;;;;;;28.44;46.40;100456.88;5093161;28;20052;-75
2023/07/14 08:23:52;;;;;;;2.47;1.58;;;;;;;28.47;46.15;100466.59;5093408;28;20093;-78
2023/07/14 08:26:21;;;;;;;3.00;1.90;;;;;;;28.46;46.23;100457.50;5093184;28;20147;-78
2023/07/14 08:28:50;;;;;;;2.75;1.88;;;;;;;28.48;46.05;100465.56;5093371;28;20060;-78
2023/07/14 08:31:18;;;;;;;3.35;1.83;;;;;;;28.48;46.03;100460.09;5092812;28;20091;-76
2023/07/14 08:33:50;;;;;;;2.80;1.70;;;;;;;28.50;45.95;100469.78;5093071;28;20543;-79
2023/07/14 08:36:19;;;;;;;3.05;2.05;;;;;;;28.50;46.03;100463.47;5093260;28;20105;-76
2023/07/14 08:38:50;;;;;;;2.80;1.90;;;;;;;28.50;46.06;100467.06;5093176;28;20059;-76
2023/07/14 08:41:28;;;;;;;2.80;1.80;;;;;;;28.51;46.44;100463.25;5093278;28;20089;-77
2023/07/14 08:44:28;;;;;;;3.10;1.98;;;;;;;28.52;46.25;100462.19;5075098;28;20503;-77
2023/07/14 08:47:05;;;;;;;2.97;1.70;;;;;;;28.52;46.19;100459.44;5092773;28;20067;-77
2023/07/14 08:49:44;;;;;;;3.00;1.92;;;;;;;28.54;45.96;100459.25;5092953;28;20051;-79
2023/07/14 08:52:20;;;;;;;4.10;2.13;;;;;;;28.54;46.05;100453.75;5092939;28;20417;-78
2023/07/14 08:54:56;;;;;;;3.00;1.80;;;;;;;28.55;46.36;100452.69;5093217;28;20062;-77
2023/07/14 08:57:26;;;;;;;3.28;1.90;;;;;;;28.57;46.25;100460.72;5092988;28;20087;-77
2023/07/14 09:00:00;;;;;;;3.10;1.90;;;;;;;28.56;45.87;100450.81;5092698;28;20394;-77
2023/07/14 09:02:36;;;;;;;3.17;1.95;;;;;;;28.58;46.16;100455.06;5092793;28;20127;-78
2023/07/14 09:05:08;;;;;;;2.67;1.73;;;;;;;28.58;46.41;100451.47;5092892;28;20161;-78
2023/07/14 09:07:38;;;;;;;3.08;2.00;;;;;;;28.60;46.17;100455.69;5092681;28;20063;-78
2023/07/14 09:10:10;;;;;;;3.15;1.80;;;;;;;28.62;45.93;100460.97;5092399;28;20082;-78
2023/07/14 09:12:49;;;;;;;3.07;2.10;;;;;;;28.62;46.00;100456.34;5092610;28;20044;-78
2023/07/14 09:15:24;;;;;;;3.13;2.20;;;;;;;28.64;45.94;100465.19;5092380;28;20055;-78
2023/07/14 09:18:03;;;;;;;3.30;1.90;;;;;;;28.61;45.84;100460.13;5092376;28;20048;-78
2023/07/14 09:21:02;;;;;;;2.85;1.92;;;;;;;28.64;46.08;100467.09;5092621;28;20474;-78
2023/07/14 09:23:54;;;;;;;2.58;1.73;;;;;;;28.66;45.91;100470.47;5077909;28;20087;-77
2023/07/14 09:26:30;;;;;;;3.75;2.00;;;;;;;28.67;45.73;100472.19;5092486;28;20105;-78
2023/07/14 09:29:08;;;;;;;3.03;2.00;;;;;;;28.69;45.98;100468.19;5092402;28;20048;-77
2023/07/14 09:31:52;;;;;;;3.08;2.00;;;;;;;28.71;45.54;100465.22;5107733;28;20048;-77
2023/07/14 09:34:27;;;;;;;2.45;1.75;;;;;;;28.71;45.58;100466.06;5092421;28;20046;-78
2023/07/14 09:36:57;;;;;;;4.00;2.00;;;;;;;28.73;45.81;100465.88;5092176;28;20139;-78
2023/07/14 09:39:32;;;;;;;3.15;2.03;;;;;;;28.75;45.55;100458.28;5092103;28;20094;-78
2023/07/14 09:42:04;;;;;;;2.35;1.70;;;;;;;28.76;45.71;100452.59;5092209;28;20050;-77
2023/07/14 09:44:32;;;;;;;3.10;1.90;;;;;;;28.77;45.42;100447.97;5073937;28;20052;-75
2023/07/14 09:47:04;;;;;;;3.30;2.13;;;;;;;28.79;45.55;100451.34;5092248;28;20044;-77
2023/07/14 09:49:39;;;;;;;3.08;1.83;;;;;;;28.80;45.43;100447.53;5092014;28;20113;-77
2023/07/14 09:52:14;;;;;;;2.45;1.73;;;;;;;28.82;45.53;100450.06;5073827;28;20469;-78
2023/07/14 09:54:50;;;;;;;3.42;2.00;;;;;;;28.83;45.49;100451.75;5092213;28;20157;-77
2023/07/14 09:57:23;;;;;;;2.72;1.80;;;;;;;28.84;45.38;100443.31;5091544;28;20139;-77
2023/07/14 10:00:15;;;;;;;2.20;1.60;;;;;;;28.85;45.18;100447.75;5091723;28;20047;-76
2023/07/14 10:02:50;;;;;;;2.60;1.85;;;;;;;28.88;45.85;100444.59;5091126;28;20056;-78
2023/07/14 10:05:41;;;;;;;3.97;2.10;;;;;;;28.89;45.38;100442.72;5091535;28;20044;-77
2023/07/14 10:08:26;;;;;;;2.92;1.98;;;;;;;28.90;45.82;100448.00;5091835;28;20048;-77
2023/07/14 10:10:57;;;;;;;3.30;1.90;;;;;;;28.91;45.67;100441.47;5092100;28;20055;-77
2023/07/14 10:13:27;;;;;;;3.88;1.88;;;;;;;28.94;45.57;100442.94;5091547;28;20048;-77
2023/07/14 10:16:03;;;;;;;2.60;1.80;;;;;;;28.96;45.83;100436.22;5091650;28;20166;-77
2023/07/14 10:18:50;;;;;;;2.53;1.70;;;;;;;28.98;45.67;100436.84;5091560;28;20044;-77
2023/07/14 10:21:26;;;;;;;3.72;2.10;;;;;;;28.99;45.37;100433.03;5091330;28;20056;-77
2023/07/14 10:23:59;;;;;;;2.85;2.00;;;;;;;29.02;45.55;100429.03;5091405;28;20059;-78
2023/07/14 10:26:32;;;;;;;3.72;1.90;;;;;;;29.02;45.56;100435.38;5091144;28;20040;-78
2023/07/14 10:29:02;;;;;;;3.33;2.00;;;;;;;29.03;45.41;100428.81;5091428;28;20040;-79
2023/07/14 10:31:37;;;;;;;2.90;2.00;;;;;;;29.06;45.57;100431.16;5091474;28;20048;-79
2023/07/14 10:34:28;;;;;;;3.53;1.90;;;;;;;29.08;45.83;100430.94;5091429;28;20044;-78
2023/07/14 10:37:00;;;;;;;3.00;1.95;;;;;;;29.11;45.52;100432.44;5092662;28;20059;-78
2023/07/14 10:39:36;;;;;;;;;;;;;;;29.13;45.38;100425.66;5091656;28;20139;-78
2023/07/14 10:42:10;;;;;;;2.83;1.88;;;;;;;29.15;45.63;100417.25;5091202;28;19970;-76
2023/07/14 10:44:43;;;;;;;3.35;2.00;;;;;;;29.16;45.42;100424.44;5091105;28;20079;-77
2023/07/14 10:47:21;;;;;;;3.80;1.90;;;;;;;29.17;45.71;100420.63;5091192;28;20040;-78
2023/07/14 10:49:58;;;;;;;2.70;2.00;;;;;;;29.18;45.57;100414.91;5091256;28;20055;-78
2023/07/14 10:52:31;;;;;;;3.40;2.10;;;;;;;29.20;45.20;100415.53;5091057;28;20041;-78
2023/07/14 10:55:05;;;;;;;2.85;2.00;;;;;;;29.22;45.45;100418.91;5091981;28;20084;-77
2023/07/14 10:57:41;;;;;;;3.70;1.90;;;;;;;29.27;45.21;100410.06;5095089;28;20044;-78
2023/07/14 11:00:21;;;;;;;3.00;1.92;;;;;;;29.30;45.08;100409.63;5077232;28;20058;-79
2023/07/14 11:03:03;;;;;;;2.72;1.70;;;;;;;29.32;45.29;100407.50;5095116;28;20126;-78
2023/07/14 11:05:34;;;;;;;3.10;1.80;;;;;;;29.34;45.19;100405.44;5095050;28;20048;-78
2023/07/14 11:08:02;;;;;;;2.90;1.83;;;;;;;29.37;45.31;100410.50;5109922;28;20124;-77
2023/07/14 11:10:40;;;;;;;3.03;1.83;;;;;;;29.37;45.29;100402.25;5094651;28;20118;-77
2023/07/14 11:13:21;;;;;;;2.72;1.80;;;;;;;29.40;45.48;100410.06;5094932;28;20044;-78
2023/07/14 11:15:58;;;;;;;2.67;1.75;;;;;;;29.45;45.17;100402.03;5094652;28;20052;-77
2023/07/14 11:18:34;;;;;;;2.67;1.67;;;;;;;29.46;45.39;100397.38;5094763;28;20038;-78
2023/07/14 11:21:19;;;;;;;4.15;1.83;;;;;;;29.49;45.10;100392.34;5094694;28;20463;-78
2023/07/14 11:23:56;;;;;;;2.65;1.70;;;;;;;29.51;45.29;100394.84;5094684;28;20108;-78
2023/07/14 11:26:31;;;;;;;2.28;1.75;;;;;;;29.54;45.25;100388.97;5094527;28;20044;-78
2023/07/14 11:29:06;;;;;;;2.83;1.90;;;;;;;29.57;45.42;100394.88;5094247;28;20052;-78
2023/07/14 11:31:45;;;;;;;2.80;1.80;;;;;;;29.62;45.02;100386.81;5094642;28;20048;-77
2023/07/14 11:34:24;;;;;;;2.35;1.80;;;;;;;29.66;45.06;100395.50;5094365;28;20600;-77
2023/07/14 11:37:04;;;;;;;3.03;1.90;;;;;;;29.69;45.30;100389.56;5094897;28;20144;-78
2023/07/14 11:39:42;;;;;;;2.85;1.83;;;;;;;29.71;45.05;100384.69;5094335;28;20139;-78
2023/07/14 11:42:19;;;;;;;3.05;1.95;;;;;;;29.76;45.34;100384.91;5094193;28;20052;-78
2023/07/14 11:44:50;;;;;;;3.00;1.80;;;;;;;29.76;45.00;100376.66;5094232;28;20446;-76
2023/07/14 11:47:24;;;;;;;2.70;1.73;;;;;;;29.78;45.45;100379.19;5094150;28;20646;-78
2023/07/14 11:49:55;;;;;;;2.53;1.70;;;;;;;29.83;45.37;100382.16;5094005;28;20139;-78